createdAt,value
2018-07-24T00:00:06.619Z,46.18
2018-07-24T00:02:34.411Z,46.90
2018-07-24T00:05:02.136Z,46.91
2018-07-24T00:07:30.536Z,47.00
2018-07-24T00:09:59.535Z,46.13
2018-07-24T00:12:27.356Z,45.64
2018-07-24T00:14:55.180Z,45.78
2018-07-24T00:17:22.828Z,46.68
2018-07-24T00:19:51.487Z,46.50
2018-07-24T00:22:19.165Z,46.15
2018-07-24T00:24:46.778Z,46.09
2018-07-24T00:27:14.503Z,45.81
2018-07-24T00:29:42.192Z,46.28
2018-07-24T00:32:09.921Z,45.46
2018-07-24T00:34:37.609Z,45.83
2018-07-24T00:37:05.444Z,46.32
2018-07-24T00:39:33.330Z,46.09
2018-07-24T00:42:01.534Z,45.54
2018-07-24T00:44:29.297Z,45.90
2018-07-24T00:46:56.997Z,45.75
2018-07-24T00:49:24.667Z,45.95
2018-07-24T00:51:52.357Z,47.39
2018-07-24T00:54:20.143Z,46.66
2018-07-24T00:56:47.700Z,47.14
2018-07-24T00:59:15.382Z,46.67
2018-07-24T01:01:42.975Z,45.52
2018-07-24T01:04:10.674Z,46.95
2018-07-24T01:06:38.610Z,46.31
2018-07-24T01:09:07.459Z,47.07
2018-07-24T01:11:35.272Z,46.34
2018-07-24T01:14:02.947Z,47.79
2018-07-24T01:16:30.652Z,47.34
2018-07-24T01:18:58.564Z,46.80
2018-07-24T01:21:26.437Z,47.22
2018-07-24T01:23:54.252Z,47.68
2018-07-24T01:26:22.788Z,46.68
2018-07-24T01:28:50.629Z,47.44
2018-07-24T01:31:18.329Z,47.27
2018-07-24T01:33:46.103Z,47.03
2018-07-24T01:36:13.848Z,46.88
2018-07-24T01:38:41.629Z,47.00
2018-07-24T01:41:09.292Z,47.15
2018-07-24T01:43:36.953Z,47.37
2018-07-24T01:46:04.638Z,46.46
2018-07-24T01:48:32.451Z,46.71
2018-07-24T01:51:00.142Z,46.92
2018-07-24T01:53:28.198Z,45.89
2018-07-24T01:55:55.934Z,46.24
2018-07-24T01:58:23.817Z,46.61
2018-07-24T02:00:51.355Z,46.83
2018-07-24T02:03:18.814Z,47.13
2018-07-24T02:05:46.262Z,46.45
2018-07-24T02:08:13.702Z,46.89
2018-07-24T02:10:41.187Z,46.66
2018-07-24T02:13:08.622Z,46.27
2018-07-24T02:15:36.700Z,46.36
2018-07-24T02:18:05.369Z,46.65
2018-07-24T02:20:33.225Z,46.12
2018-07-24T02:23:02.095Z,47.61
2018-07-24T02:25:30.115Z,47.20
2018-07-24T02:27:58.072Z,47.09
2018-07-24T02:30:25.854Z,46.76
2018-07-24T02:32:53.557Z,47.13
2018-07-24T02:35:21.284Z,46.22
2018-07-24T02:37:49.308Z,46.94
2018-07-24T02:40:17.030Z,46.69
2018-07-24T02:42:44.757Z,47.26
2018-07-24T02:45:16.838Z,47.50
2018-07-24T02:47:45.622Z,46.81
2018-07-24T02:50:13.477Z,47.17
2018-07-24T02:52:41.352Z,47.01
2018-07-24T02:55:09.052Z,47.13
2018-07-24T02:57:36.800Z,46.65
2018-07-24T03:00:04.458Z,47.20
2018-07-24T03:02:32.289Z,47.71
2018-07-24T03:04:59.976Z,46.64
2018-07-24T03:07:27.553Z,46.42
2018-07-24T03:09:55.143Z,46.70
2018-07-24T03:12:22.894Z,46.30
2018-07-24T03:14:50.488Z,46.47
2018-07-24T03:17:18.194Z,46.80
2018-07-24T03:19:45.883Z,46.83
2018-07-24T03:22:13.482Z,47.29
2018-07-24T03:24:41.441Z,47.01
2018-07-24T03:27:09.124Z,47.00
2018-07-24T03:29:36.932Z,47.51
2018-07-24T03:32:04.653Z,47.17
2018-07-24T03:34:32.328Z,47.00
2018-07-24T03:37:00.034Z,47.68
2018-07-24T03:39:27.920Z,46.74
2018-07-24T03:41:55.834Z,47.59
2018-07-24T03:44:23.593Z,48.48
2018-07-24T03:46:51.261Z,47.16
2018-07-24T03:49:19.027Z,47.84
2018-07-24T03:51:46.811Z,47.63
2018-07-24T03:54:14.602Z,47.60
2018-07-24T03:56:42.318Z,47.43
2018-07-24T03:59:10.059Z,47.83
2018-07-24T04:01:37.815Z,48.44
2018-07-24T04:04:05.442Z,48.11
2018-07-24T04:06:33.324Z,47.74
2018-07-24T04:09:01.009Z,48.38
2018-07-24T04:11:28.801Z,47.28
2018-07-24T04:13:56.425Z,47.71
2018-07-24T04:16:24.320Z,47.40
2018-07-24T04:18:52.100Z,47.03
2018-07-24T04:21:19.738Z,47.92
2018-07-24T04:23:47.518Z,47.23
2018-07-24T04:26:15.043Z,45.80
2018-07-24T04:28:42.529Z,45.10
2018-07-24T04:31:11.163Z,44.89
2018-07-24T04:33:38.877Z,45.65
2018-07-24T04:36:06.310Z,44.81
2018-07-24T04:38:33.781Z,45.59
2018-07-24T04:41:01.235Z,44.88
2018-07-24T04:43:28.593Z,45.03
2018-07-24T04:45:55.938Z,45.57
2018-07-24T04:48:23.439Z,45.83
2018-07-24T04:50:50.858Z,45.26
2018-07-24T04:53:18.294Z,45.38
2018-07-24T04:55:45.847Z,44.96
2018-07-24T04:58:13.174Z,45.84
2018-07-24T05:00:40.502Z,45.35
2018-07-24T05:03:07.920Z,45.44
2018-07-24T05:05:35.510Z,45.75
2018-07-24T05:08:02.835Z,45.78
2018-07-24T05:10:30.372Z,45.75
2018-07-24T05:12:57.674Z,45.79
2018-07-24T05:15:25.017Z,46.09
2018-07-24T05:17:52.321Z,45.41
2018-07-24T05:20:19.735Z,45.80
2018-07-24T05:22:47.190Z,46.08
2018-07-24T05:25:14.630Z,46.27
2018-07-24T05:27:41.957Z,45.57
2018-07-24T05:30:09.429Z,45.78
2018-07-24T05:32:36.831Z,45.46
2018-07-24T05:35:04.328Z,45.32
2018-07-24T05:37:31.643Z,45.51
2018-07-24T05:39:59.139Z,45.63
2018-07-24T05:42:26.541Z,46.03
2018-07-24T05:44:53.974Z,46.03
2018-07-24T05:47:21.501Z,45.89
2018-07-24T05:49:48.974Z,46.28
2018-07-24T05:52:16.470Z,45.96
2018-07-24T05:54:43.910Z,46.53
2018-07-24T05:57:11.431Z,46.58
2018-07-24T05:59:38.823Z,46.68
2018-07-24T06:02:07.335Z,46.15
2018-07-24T06:04:34.626Z,46.51
2018-07-24T06:07:02.052Z,46.57
2018-07-24T06:09:29.494Z,46.04
2018-07-24T06:11:56.962Z,45.79
2018-07-24T06:14:24.256Z,46.58
2018-07-24T06:16:51.768Z,46.70
2018-07-24T06:19:19.117Z,46.67
2018-07-24T06:21:46.610Z,46.67
2018-07-24T06:24:13.870Z,46.68
2018-07-24T06:26:41.280Z,46.54
2018-07-24T06:29:08.744Z,46.74
2018-07-24T06:31:36.193Z,47.23
2018-07-24T06:34:03.635Z,47.28
2018-07-24T06:36:30.953Z,46.46
2018-07-24T06:38:58.271Z,46.37
2018-07-24T06:41:26.163Z,46.29
2018-07-24T06:43:53.478Z,46.44
2018-07-24T06:46:20.929Z,46.37
2018-07-24T06:48:48.230Z,47.07
2018-07-24T06:51:15.684Z,46.21
2018-07-24T06:53:43.114Z,46.15
2018-07-24T06:56:10.542Z,46.53
2018-07-24T06:58:37.826Z,47.28
2018-07-24T07:01:05.302Z,47.06
2018-07-24T07:03:32.712Z,46.55
2018-07-24T07:06:00.189Z,46.94
2018-07-24T07:08:27.494Z,46.30
2018-07-24T07:10:54.894Z,46.29
2018-07-24T07:13:22.396Z,47.14
2018-07-24T07:15:49.855Z,47.09
2018-07-24T07:18:17.170Z,47.12
2018-07-24T07:20:44.614Z,46.53
2018-07-24T07:23:11.973Z,46.36
2018-07-24T07:25:39.430Z,46.90
2018-07-24T07:28:06.955Z,47.16
2018-07-24T07:30:34.347Z,46.71
2018-07-24T07:33:01.835Z,46.71
2018-07-24T07:35:29.262Z,45.93
2018-07-24T07:37:56.697Z,46.47
2018-07-24T07:40:24.165Z,46.82
2018-07-24T07:42:51.621Z,45.80
2018-07-24T07:45:19.122Z,46.73
2018-07-24T07:47:46.540Z,46.55
2018-07-24T07:50:15.043Z,45.17
2018-07-24T07:52:42.374Z,46.63
2018-07-24T07:55:09.754Z,45.62
2018-07-24T07:57:37.204Z,45.55
2018-07-24T08:00:04.737Z,45.38
2018-07-24T08:02:32.148Z,46.08
2018-07-24T08:04:59.444Z,46.18
2018-07-24T08:07:26.810Z,45.92
2018-07-24T08:09:54.281Z,45.27
2018-07-24T08:12:21.803Z,45.88
2018-07-24T08:14:49.169Z,45.85
2018-07-24T08:17:16.650Z,46.21
2018-07-24T08:19:44.121Z,45.15
2018-07-24T08:22:11.465Z,44.82
2018-07-24T08:24:38.818Z,45.38
2018-07-24T08:27:06.249Z,44.59
2018-07-24T08:29:34.789Z,44.18
2018-07-24T08:32:02.200Z,45.47
2018-07-24T08:34:29.663Z,43.48
2018-07-24T08:36:57.122Z,44.54
2018-07-24T08:39:24.576Z,43.99
2018-07-24T08:41:52.049Z,43.45
2018-07-24T08:44:19.513Z,44.12
2018-07-24T08:46:47.103Z,43.54
2018-07-24T08:49:14.440Z,44.29
2018-07-24T08:51:41.936Z,44.05
2018-07-24T08:54:09.535Z,43.18
2018-07-24T08:56:36.989Z,43.37
2018-07-24T08:59:04.461Z,44.51
2018-07-24T09:01:31.911Z,44.10
2018-07-24T09:03:59.355Z,43.90
2018-07-24T09:06:26.860Z,44.22
2018-07-24T09:08:54.242Z,45.12
2018-07-24T09:11:21.735Z,44.82
2018-07-24T09:13:49.175Z,44.04
2018-07-24T09:16:16.653Z,43.94
2018-07-24T09:18:44.073Z,44.93
2018-07-24T09:21:11.558Z,44.84
2018-07-24T09:23:39.014Z,43.79
2018-07-24T09:26:06.545Z,44.04
2018-07-24T09:28:33.954Z,44.07
2018-07-24T09:31:01.383Z,43.91
2018-07-24T09:33:28.836Z,44.89
2018-07-24T09:35:56.345Z,44.77
2018-07-24T09:38:23.721Z,44.95
2018-07-24T09:40:51.100Z,43.99
2018-07-24T09:43:18.565Z,44.41
2018-07-24T09:45:46.025Z,44.60
2018-07-24T09:48:13.489Z,44.73
2018-07-24T09:50:40.995Z,45.01
2018-07-24T09:53:08.442Z,45.14
2018-07-24T09:55:35.909Z,44.91
2018-07-24T09:58:03.294Z,44.57
2018-07-24T10:00:31.078Z,45.32
2018-07-24T10:02:58.481Z,45.43
2018-07-24T10:05:26.001Z,45.29
2018-07-24T10:07:53.331Z,45.26
2018-07-24T10:10:20.826Z,45.23
2018-07-24T10:12:48.375Z,44.79
2018-07-24T10:15:15.742Z,45.19
2018-07-24T10:17:43.159Z,44.56
2018-07-24T10:20:10.644Z,44.31
2018-07-24T10:22:38.124Z,44.74
2018-07-24T10:25:05.586Z,44.14
2018-07-24T10:27:33.003Z,44.79
2018-07-24T10:30:00.479Z,44.70
2018-07-24T10:32:27.941Z,44.90
2018-07-24T10:34:55.379Z,43.79
2018-07-24T10:37:22.839Z,44.89
2018-07-24T10:39:50.297Z,44.81
2018-07-24T10:42:17.733Z,44.18
2018-07-24T10:44:45.214Z,44.26
2018-07-24T10:47:12.654Z,44.57
2018-07-24T10:49:40.119Z,44.36
2018-07-24T10:52:07.545Z,43.73
2018-07-24T10:54:35.086Z,44.01
2018-07-24T10:57:02.590Z,44.05
2018-07-24T10:59:29.932Z,44.48
2018-07-24T11:01:57.435Z,43.75
2018-07-24T11:04:24.862Z,42.92
2018-07-24T11:06:52.317Z,44.08
2018-07-24T11:09:19.811Z,43.79
2018-07-24T11:11:47.256Z,43.19
2018-07-24T11:14:14.705Z,42.90
2018-07-24T11:16:43.166Z,43.57
2018-07-24T11:19:10.630Z,43.62
2018-07-24T11:21:38.093Z,43.51
2018-07-24T11:24:05.570Z,43.20
2018-07-24T11:26:33.001Z,42.83
2018-07-24T11:29:00.529Z,43.14
2018-07-24T11:31:27.922Z,43.91
2018-07-24T11:33:55.407Z,42.93
2018-07-24T11:36:22.964Z,42.91
2018-07-24T11:38:50.310Z,43.50
2018-07-24T11:41:17.727Z,42.74
2018-07-24T11:43:45.209Z,43.83
2018-07-24T11:46:12.664Z,43.92
2018-07-24T11:48:40.142Z,43.15
2018-07-24T11:51:07.910Z,43.40
2018-07-24T11:53:35.251Z,43.59
2018-07-24T11:56:02.762Z,43.38
2018-07-24T11:58:31.106Z,45.12
2018-07-24T12:00:58.430Z,45.84
2018-07-24T12:03:25.961Z,45.38
2018-07-24T12:05:53.338Z,45.58
2018-07-24T12:08:21.284Z,45.90
2018-07-24T12:10:48.736Z,46.28
2018-07-24T12:13:16.182Z,46.13
2018-07-24T12:15:43.590Z,46.53
2018-07-24T12:18:11.066Z,46.50
2018-07-24T12:20:38.493Z,45.46
2018-07-24T12:23:06.078Z,45.34
2018-07-24T12:25:33.390Z,44.62
2018-07-24T12:28:00.964Z,44.64
2018-07-24T12:30:28.340Z,45.54
2018-07-24T12:32:56.546Z,44.85
2018-07-24T12:35:24.161Z,44.63
2018-07-24T12:37:51.512Z,45.17
2018-07-24T12:40:18.994Z,45.31
2018-07-24T12:42:46.455Z,45.23
2018-07-24T12:45:13.936Z,45.16
2018-07-24T12:47:41.329Z,45.20
2018-07-24T12:50:08.794Z,44.99
2018-07-24T12:52:36.358Z,45.08
2018-07-24T12:55:03.762Z,45.92
2018-07-24T12:57:31.227Z,46.07
2018-07-24T12:59:58.598Z,45.86
2018-07-24T13:02:26.090Z,45.39
2018-07-24T13:04:53.592Z,45.49
2018-07-24T13:07:21.167Z,45.73
2018-07-24T13:09:49.541Z,45.37
2018-07-24T13:12:18.494Z,46.24
2018-07-24T13:14:46.849Z,46.41
2018-07-24T13:17:14.359Z,46.18
2018-07-24T13:19:42.817Z,45.85
2018-07-24T13:22:10.286Z,45.64
2018-07-24T13:24:37.749Z,45.89
2018-07-24T13:27:05.563Z,46.24
2018-07-24T13:29:33.383Z,45.54
2018-07-24T13:32:01.460Z,45.89
2018-07-24T13:34:29.129Z,45.51
2018-07-24T13:36:57.915Z,45.58
2018-07-24T13:39:25.352Z,44.65
2018-07-24T13:41:52.827Z,45.18
2018-07-24T13:44:20.394Z,45.57
2018-07-24T13:46:47.689Z,45.04
2018-07-24T13:49:15.133Z,44.93
2018-07-24T13:51:42.730Z,44.73
2018-07-24T13:54:10.273Z,44.77
2018-07-24T13:56:37.748Z,44.98
2018-07-24T13:59:05.356Z,44.16
2018-07-24T14:01:33.449Z,44.17
2018-07-24T14:04:01.486Z,44.33
2018-07-24T14:06:28.967Z,44.99
2018-07-24T14:08:56.438Z,44.44
2018-07-24T14:11:23.996Z,45.11
2018-07-24T14:13:52.062Z,44.25
2018-07-24T14:16:19.746Z,44.88
2018-07-24T14:18:47.417Z,45.08
2018-07-24T14:21:14.978Z,44.99
2018-07-24T14:23:42.737Z,45.37
2018-07-24T14:26:10.086Z,44.73
2018-07-24T14:28:37.527Z,45.88
2018-07-24T14:31:05.015Z,45.87
2018-07-24T14:33:32.464Z,45.83
2018-07-24T14:35:59.944Z,45.71
2018-07-24T14:38:27.369Z,45.08
2018-07-24T14:40:54.802Z,45.27
2018-07-24T14:43:22.287Z,44.94
2018-07-24T14:45:49.721Z,45.29
2018-07-24T14:48:17.451Z,45.19
2018-07-24T14:50:44.839Z,45.33
2018-07-24T14:53:12.307Z,44.29
2018-07-24T14:55:39.818Z,45.36
2018-07-24T14:58:07.242Z,44.87
2018-07-24T15:00:34.693Z,45.00
2018-07-24T15:03:02.187Z,44.07
2018-07-24T15:05:29.598Z,44.56
2018-07-24T15:07:57.219Z,43.75
2018-07-24T15:10:24.693Z,44.80
2018-07-24T15:12:52.182Z,44.84
2018-07-24T15:15:19.607Z,43.38
2018-07-24T15:17:47.057Z,44.44
2018-07-24T15:20:14.598Z,44.18
2018-07-24T15:22:42.011Z,44.00
2018-07-24T15:25:09.425Z,43.94
2018-07-24T15:27:36.947Z,43.39
2018-07-24T15:30:06.172Z,43.39
2018-07-24T15:32:33.648Z,43.28
2018-07-24T15:35:01.296Z,44.35
2018-07-24T15:37:28.621Z,43.48
2018-07-24T15:39:56.035Z,43.63
2018-07-24T15:42:23.487Z,44.03
2018-07-24T15:44:50.954Z,43.95
2018-07-24T15:47:18.417Z,43.70
2018-07-24T15:49:45.866Z,43.17
2018-07-24T15:52:13.390Z,43.56
2018-07-24T15:54:40.813Z,44.03
2018-07-24T15:57:08.251Z,43.47
2018-07-24T15:59:35.687Z,43.86
2018-07-24T16:02:03.138Z,43.64
2018-07-24T16:04:30.623Z,43.83
2018-07-24T16:06:58.076Z,43.14
2018-07-24T16:09:25.508Z,43.84
2018-07-24T16:11:52.981Z,43.34
2018-07-24T16:14:20.430Z,43.82
2018-07-24T16:16:47.906Z,44.09
2018-07-24T16:19:15.346Z,43.72
2018-07-24T16:21:42.811Z,43.48
2018-07-24T16:24:10.262Z,43.66
2018-07-24T16:26:37.775Z,43.40
2018-07-24T16:29:05.200Z,44.01
2018-07-24T16:31:32.642Z,44.26
2018-07-24T16:34:00.122Z,43.72
2018-07-24T16:36:27.542Z,43.46
2018-07-24T16:38:55.022Z,43.87
2018-07-24T16:41:22.465Z,44.04
2018-07-24T16:43:49.950Z,42.97
2018-07-24T16:46:17.374Z,43.10
2018-07-24T16:48:44.971Z,43.69
2018-07-24T16:51:12.304Z,44.01
2018-07-24T16:53:39.742Z,44.09
2018-07-24T16:56:07.251Z,45.48
2018-07-24T16:58:34.671Z,45.32
2018-07-24T17:01:02.122Z,45.26
2018-07-24T17:03:29.565Z,45.80
2018-07-24T17:05:57.042Z,46.22
2018-07-24T17:08:24.563Z,45.39
2018-07-24T17:10:53.032Z,46.38
2018-07-24T17:13:20.843Z,45.29
2018-07-24T17:15:50.957Z,46.45
2018-07-24T17:18:18.305Z,45.66
2018-07-24T17:20:53.196Z,46.13
2018-07-24T17:23:25.723Z,45.17
2018-07-24T17:25:56.984Z,45.63
2018-07-24T17:28:24.737Z,45.96
2018-07-24T17:30:52.186Z,46.34
2018-07-24T17:33:20.003Z,46.42
2018-07-24T17:35:47.430Z,45.25
2018-07-24T17:38:14.881Z,46.70
2018-07-24T17:40:42.393Z,45.29
2018-07-24T17:43:10.228Z,45.55
2018-07-24T17:45:37.653Z,45.75
2018-07-24T17:48:05.722Z,46.64
2018-07-24T17:50:33.163Z,47.02
2018-07-24T17:53:00.447Z,46.25
2018-07-24T17:55:27.879Z,45.82
2018-07-24T17:57:55.367Z,46.37
2018-07-24T18:00:22.889Z,46.56
2018-07-24T18:02:50.272Z,46.06
2018-07-24T18:05:17.734Z,46.20
2018-07-24T18:07:45.171Z,46.85
2018-07-24T18:10:12.650Z,46.57
2018-07-24T18:12:40.091Z,44.73
2018-07-24T18:15:07.551Z,42.84
2018-07-24T18:17:35.013Z,42.47
2018-07-24T18:20:02.480Z,41.58
2018-07-24T18:22:29.927Z,40.10
2018-07-24T18:24:57.401Z,39.40
2018-07-24T18:27:24.866Z,39.69
2018-07-24T18:29:52.304Z,38.30
2018-07-24T18:32:19.878Z,38.88
2018-07-24T18:34:47.409Z,38.72
2018-07-24T18:37:14.873Z,39.09
2018-07-24T18:39:42.383Z,38.64
2018-07-24T18:42:09.815Z,38.78
2018-07-24T18:44:37.234Z,38.24
2018-07-24T18:47:04.818Z,39.06
2018-07-24T18:49:32.142Z,38.60
2018-07-24T18:51:59.623Z,39.22
2018-07-24T18:54:27.070Z,39.18
2018-07-24T18:56:54.564Z,38.02
2018-07-24T18:59:21.983Z,39.33
2018-07-24T19:01:49.578Z,38.75
2018-07-24T19:04:16.989Z,39.02
2018-07-24T19:06:44.347Z,39.93
2018-07-24T19:09:11.822Z,40.59
2018-07-24T19:11:39.273Z,40.10
2018-07-24T19:14:06.974Z,39.91
2018-07-24T19:16:34.398Z,40.29
2018-07-24T19:19:01.874Z,39.88
2018-07-24T19:21:29.290Z,40.67
2018-07-24T19:23:57.236Z,39.90
2018-07-24T19:26:24.646Z,39.45
2018-07-24T19:28:52.083Z,41.14
2018-07-24T19:31:19.625Z,39.67
2018-07-24T19:33:47.102Z,39.83
2018-07-24T19:36:14.614Z,40.05
2018-07-24T19:38:42.285Z,40.62
2018-07-24T19:41:09.843Z,40.41
2018-07-24T19:43:37.259Z,40.54
2018-07-24T19:46:04.970Z,39.55
2018-07-24T19:48:32.524Z,41.04
2018-07-24T19:51:00.072Z,41.19
2018-07-24T19:53:27.501Z,40.25
2018-07-24T19:55:56.449Z,40.45
2018-07-24T19:58:23.825Z,40.77
2018-07-24T20:00:51.270Z,39.99
2018-07-24T20:03:18.749Z,40.64
2018-07-24T20:05:46.182Z,40.42
2018-07-24T20:08:13.661Z,42.26
2018-07-24T20:10:41.102Z,42.36
2018-07-24T20:13:08.574Z,41.39
2018-07-24T20:15:36.020Z,42.82
2018-07-24T20:18:03.510Z,42.17
2018-07-24T20:20:31.510Z,42.47
2018-07-24T20:22:59.291Z,41.42
2018-07-24T20:25:26.494Z,41.62
2018-07-24T20:27:54.022Z,42.23
2018-07-24T20:30:21.378Z,42.40
2018-07-24T20:32:48.862Z,42.19
2018-07-24T20:35:16.328Z,42.88
2018-07-24T20:37:43.779Z,42.32
2018-07-24T20:40:11.202Z,41.91
2018-07-24T20:42:38.697Z,42.65
2018-07-24T20:45:06.141Z,41.97
2018-07-24T20:47:33.599Z,42.65
2018-07-24T20:50:01.072Z,42.58
2018-07-24T20:52:28.607Z,42.64
2018-07-24T20:54:55.953Z,43.54
2018-07-24T20:57:23.406Z,43.68
2018-07-24T20:59:50.885Z,42.92
2018-07-24T21:02:18.344Z,42.67
2018-07-24T21:04:45.794Z,42.59
2018-07-24T21:07:13.235Z,42.82
2018-07-24T21:09:40.765Z,42.55
2018-07-24T21:12:08.162Z,42.95
2018-07-24T21:14:35.637Z,44.08
2018-07-24T21:17:03.069Z,43.23
2018-07-24T21:19:30.538Z,43.15
2018-07-24T21:21:58.125Z,43.27
2018-07-24T21:24:25.557Z,43.39
2018-07-24T21:26:53.025Z,44.38
2018-07-24T21:29:20.613Z,43.34
2018-07-24T21:31:48.134Z,44.24
2018-07-24T21:34:15.850Z,43.74
2018-07-24T21:36:43.291Z,43.60
2018-07-24T21:39:10.853Z,43.70
2018-07-24T21:41:38.440Z,44.41
2018-07-24T21:44:05.958Z,43.62
2018-07-24T21:46:33.546Z,44.62
2018-07-24T21:49:00.991Z,44.52
2018-07-24T21:51:28.461Z,44.38
2018-07-24T21:53:55.883Z,44.25
2018-07-24T21:56:24.350Z,43.75
2018-07-24T21:58:51.945Z,44.70
2018-07-24T22:01:23.326Z,44.60
2018-07-24T22:03:51.038Z,44.03
2018-07-24T22:06:19.850Z,44.49
2018-07-24T22:08:48.640Z,44.08
2018-07-24T22:11:17.221Z,44.06
2018-07-24T22:13:45.592Z,44.11
2018-07-24T22:16:13.902Z,44.86
2018-07-24T22:18:42.175Z,43.54
2018-07-24T22:21:11.724Z,43.44
2018-07-24T22:23:40.209Z,43.83
2018-07-24T22:26:08.579Z,44.51
2018-07-24T22:28:37.701Z,43.96
2018-07-24T22:31:05.972Z,44.68
2018-07-24T22:33:34.340Z,44.25
2018-07-24T22:36:03.188Z,44.67
2018-07-24T22:38:31.993Z,44.56
2018-07-24T22:41:00.381Z,44.64
2018-07-24T22:43:31.726Z,44.47
2018-07-24T22:46:00.311Z,44.15
2018-07-24T22:48:29.667Z,44.85
2018-07-24T22:50:57.944Z,45.59
2018-07-24T22:53:28.323Z,45.08
2018-07-24T22:55:57.074Z,43.12
2018-07-24T22:58:26.353Z,43.47
2018-07-24T23:00:54.788Z,43.17
2018-07-24T23:03:24.686Z,43.03
2018-07-24T23:05:53.810Z,42.73
2018-07-24T23:08:22.607Z,43.01
2018-07-24T23:10:50.978Z,42.81
2018-07-24T23:13:19.416Z,42.63
2018-07-24T23:15:47.704Z,42.47
2018-07-24T23:18:17.143Z,43.17
2018-07-24T23:20:46.269Z,42.94
2018-07-24T23:23:14.496Z,42.97
2018-07-24T23:25:41.970Z,42.55
2018-07-24T23:28:09.433Z,43.16
2018-07-24T23:30:36.857Z,42.78
2018-07-24T23:33:04.337Z,43.27
2018-07-24T23:35:32.796Z,43.51
2018-07-24T23:38:00.286Z,43.01
2018-07-24T23:40:27.726Z,42.79
2018-07-24T23:42:55.186Z,43.28
2018-07-24T23:45:22.631Z,42.76
2018-07-24T23:47:50.156Z,42.52
2018-07-24T23:50:17.529Z,43.08
2018-07-24T23:52:45.014Z,43.66
2018-07-24T23:55:12.445Z,42.89
2018-07-24T23:57:39.920Z,42.87
